sensor_id;sensor_type;location;lat;lon;timestamp;temperature;humidity
48535;DHT22;34323;52.022;5.686;2023-04-24T00:01:28;13.10;99.90
48535;DHT22;34323;52.022;5.686;2023-04-24T00:03:55;13.20;99.90
48535;DHT22;34323;52.022;5.686;2023-04-24T00:06:21;12.80;99.90
48535;DHT22;34323;52.022;5.686;2023-04-24T00:08:49;12.80;99.90
48535;DHT22;34323;52.022;5.686;2023-04-24T00:11:14;13.00;99.90
48535;DHT22;34323;52.022;5.686;2023-04-24T00:13:40;13.10;99.90
48535;DHT22;34323;52.022;5.686;2023-04-24T00:16:05;13.30;99.90
48535;DHT22;34323;52.022;5.686;2023-04-24T00:18:31;13.50;99.90
48535;DHT22;34323;52.022;5.686;2023-04-24T00:20:57;13.60;99.90
48535;DHT22;34323;52.022;5.686;2023-04-24T00:23:22;13.50;99.90
48535;DHT22;34323;52.022;5.686;2023-04-24T00:25:48;13.40;99.90
48535;DHT22;34323;52.022;5.686;2023-04-24T00:28:13;13.30;99.90
48535;DHT22;34323;52.022;5.686;2023-04-24T00:30:39;13.60;99.90
48535;DHT22;34323;52.022;5.686;2023-04-24T00:33:05;13.60;99.90
48535;DHT22;34323;52.022;5.686;2023-04-24T00:35:31;13.90;99.90
48535;DHT22;34323;52.022;5.686;2023-04-24T00:37:56;14.00;99.90
48535;DHT22;34323;52.022;5.686;2023-04-24T00:40:22;13.80;99.90
48535;DHT22;34323;52.022;5.686;2023-04-24T00:42:47;13.70;99.90
48535;DHT22;34323;52.022;5.686;2023-04-24T00:45:13;13.60;99.90
48535;DHT22;34323;52.022;5.686;2023-04-24T00:47:40;13.30;99.90
48535;DHT22;34323;52.022;5.686;2023-04-24T00:50:07;13.30;99.90
48535;DHT22;34323;52.022;5.686;2023-04-24T00:52:33;13.50;99.90
48535;DHT22;34323;52.022;5.686;2023-04-24T00:54:58;13.40;99.90
48535;DHT22;34323;52.022;5.686;2023-04-24T00:57:24;13.50;99.90
48535;DHT22;34323;52.022;5.686;2023-04-24T00:59:51;13.20;99.90
48535;DHT22;34323;52.022;5.686;2023-04-24T01:02:17;13.40;99.90
48535;DHT22;34323;52.022;5.686;2023-04-24T01:04:44;13.50;99.90
48535;DHT22;34323;52.022;5.686;2023-04-24T01:07:09;13.00;99.90
48535;DHT22;34323;52.022;5.686;2023-04-24T01:09:43;12.50;99.90
48535;DHT22;34323;52.022;5.686;2023-04-24T01:12:12;12.70;99.90
48535;DHT22;34323;52.022;5.686;2023-04-24T01:14:38;13.10;99.90
48535;DHT22;34323;52.022;5.686;2023-04-24T01:17:03;13.50;99.90
48535;DHT22;34323;52.022;5.686;2023-04-24T01:19:29;13.30;99.90
48535;DHT22;34323;52.022;5.686;2023-04-24T01:21:58;13.30;99.90
48535;DHT22;34323;52.022;5.686;2023-04-24T01:24:24;13.50;99.90
48535;DHT22;34323;52.022;5.686;2023-04-24T01:26:50;13.50;99.90
48535;DHT22;34323;52.022;5.686;2023-04-24T01:29:15;13.40;99.90
48535;DHT22;34323;52.022;5.686;2023-04-24T01:31:41;13.60;99.90
48535;DHT22;34323;52.022;5.686;2023-04-24T01:34:07;13.90;99.90
48535;DHT22;34323;52.022;5.686;2023-04-24T01:36:34;14.20;99.90
48535;DHT22;34323;52.022;5.686;2023-04-24T01:39:00;14.30;99.90
48535;DHT22;34323;52.022;5.686;2023-04-24T01:41:26;13.70;99.90
48535;DHT22;34323;52.022;5.686;2023-04-24T01:43:52;13.50;99.90
48535;DHT22;34323;52.022;5.686;2023-04-24T01:46:18;13.70;99.90
48535;DHT22;34323;52.022;5.686;2023-04-24T01:48:45;13.90;99.90
48535;DHT22;34323;52.022;5.686;2023-04-24T01:51:11;14.10;99.90
48535;DHT22;34323;52.022;5.686;2023-04-24T01:53:36;14.00;99.90
48535;DHT22;34323;52.022;5.686;2023-04-24T01:56:02;14.30;99.90
48535;DHT22;34323;52.022;5.686;2023-04-24T01:58:28;14.50;99.90
48535;DHT22;34323;52.022;5.686;2023-04-24T02:00:56;14.60;99.90
48535;DHT22;34323;52.022;5.686;2023-04-24T02:03:22;14.40;99.90
48535;DHT22;34323;52.022;5.686;2023-04-24T02:05:47;14.00;99.90
48535;DHT22;34323;52.022;5.686;2023-04-24T02:08:13;13.90;99.90
48535;DHT22;34323;52.022;5.686;2023-04-24T02:10:38;13.80;99.90
48535;DHT22;34323;52.022;5.686;2023-04-24T02:13:04;13.50;99.90
48535;DHT22;34323;52.022;5.686;2023-04-24T02:15:30;13.70;99.90
48535;DHT22;34323;52.022;5.686;2023-04-24T02:17:55;13.80;99.90
48535;DHT22;34323;52.022;5.686;2023-04-24T02:20:21;13.80;99.90
48535;DHT22;34323;52.022;5.686;2023-04-24T02:22:46;13.80;99.90
48535;DHT22;34323;52.022;5.686;2023-04-24T02:25:12;14.00;99.90
48535;DHT22;34323;52.022;5.686;2023-04-24T02:27:37;14.50;99.90
48535;DHT22;34323;52.022;5.686;2023-04-24T02:30:03;14.70;99.90
48535;DHT22;34323;52.022;5.686;2023-04-24T02:32:29;14.50;99.90
48535;DHT22;34323;52.022;5.686;2023-04-24T02:34:56;14.60;99.90
48535;DHT22;34323;52.022;5.686;2023-04-24T02:37:21;14.50;99.90
48535;DHT22;34323;52.022;5.686;2023-04-24T02:39:47;14.60;99.90
48535;DHT22;34323;52.022;5.686;2023-04-24T02:42:12;14.50;99.90
48535;DHT22;34323;52.022;5.686;2023-04-24T02:44:38;13.70;99.90
48535;DHT22;34323;52.022;5.686;2023-04-24T02:47:03;13.60;99.90
48535;DHT22;34323;52.022;5.686;2023-04-24T02:49:29;13.80;99.90
48535;DHT22;34323;52.022;5.686;2023-04-24T02:51:54;14.10;99.90
48535;DHT22;34323;52.022;5.686;2023-04-24T02:54:20;13.60;99.90
48535;DHT22;34323;52.022;5.686;2023-04-24T02:56:45;13.50;99.90
48535;DHT22;34323;52.022;5.686;2023-04-24T02:59:11;13.40;99.90
48535;DHT22;34323;52.022;5.686;2023-04-24T03:01:37;13.70;99.90
48535;DHT22;34323;52.022;5.686;2023-04-24T03:04:02;13.60;99.90
48535;DHT22;34323;52.022;5.686;2023-04-24T03:06:28;13.20;99.90
48535;DHT22;34323;52.022;5.686;2023-04-24T03:08:53;13.30;99.90
48535;DHT22;34323;52.022;5.686;2023-04-24T03:11:19;13.60;99.90
48535;DHT22;34323;52.022;5.686;2023-04-24T03:13:45;13.90;99.90
48535;DHT22;34323;52.022;5.686;2023-04-24T03:16:11;14.10;99.90
48535;DHT22;34323;52.022;5.686;2023-04-24T03:18:36;13.80;99.90
48535;DHT22;34323;52.022;5.686;2023-04-24T03:21:02;13.50;99.90
48535;DHT22;34323;52.022;5.686;2023-04-24T03:23:28;13.60;99.90
48535;DHT22;34323;52.022;5.686;2023-04-24T03:25:54;13.80;99.90
48535;DHT22;34323;52.022;5.686;2023-04-24T03:28:20;14.20;99.90
48535;DHT22;34323;52.022;5.686;2023-04-24T03:30:46;14.20;99.90
48535;DHT22;34323;52.022;5.686;2023-04-24T03:33:11;13.90;99.90
48535;DHT22;34323;52.022;5.686;2023-04-24T03:35:37;13.90;99.90
48535;DHT22;34323;52.022;5.686;2023-04-24T03:38:02;14.00;99.90
48535;DHT22;34323;52.022;5.686;2023-04-24T03:40:30;14.10;99.90
48535;DHT22;34323;52.022;5.686;2023-04-24T03:42:55;14.10;99.90
48535;DHT22;34323;52.022;5.686;2023-04-24T03:45:21;13.70;99.90
48535;DHT22;34323;52.022;5.686;2023-04-24T03:47:47;13.70;99.90
48535;DHT22;34323;52.022;5.686;2023-04-24T03:50:12;13.90;99.90
48535;DHT22;34323;52.022;5.686;2023-04-24T03:52:38;13.70;99.90
48535;DHT22;34323;52.022;5.686;2023-04-24T03:55:04;13.80;99.90
48535;DHT22;34323;52.022;5.686;2023-04-24T03:57:29;13.70;99.90
48535;DHT22;34323;52.022;5.686;2023-04-24T03:59:55;13.90;99.90
48535;DHT22;34323;52.022;5.686;2023-04-24T04:02:20;14.10;99.90
48535;DHT22;34323;52.022;5.686;2023-04-24T04:04:46;14.00;99.90
48535;DHT22;34323;52.022;5.686;2023-04-24T04:07:12;14.00;99.90
48535;DHT22;34323;52.022;5.686;2023-04-24T04:09:38;13.40;99.90
48535;DHT22;34323;52.022;5.686;2023-04-24T04:12:04;13.40;99.90
48535;DHT22;34323;52.022;5.686;2023-04-24T04:14:29;13.20;99.90
48535;DHT22;34323;52.022;5.686;2023-04-24T04:16:55;13.00;99.90
48535;DHT22;34323;52.022;5.686;2023-04-24T04:19:20;12.20;99.90
48535;DHT22;34323;52.022;5.686;2023-04-24T04:21:46;12.20;99.90
48535;DHT22;34323;52.022;5.686;2023-04-24T04:24:16;12.30;99.90
48535;DHT22;34323;52.022;5.686;2023-04-24T04:26:41;12.40;99.90
48535;DHT22;34323;52.022;5.686;2023-04-24T04:29:11;12.60;99.90
48535;DHT22;34323;52.022;5.686;2023-04-24T04:31:37;12.80;99.90
48535;DHT22;34323;52.022;5.686;2023-04-24T04:34:02;13.10;99.90
48535;DHT22;34323;52.022;5.686;2023-04-24T04:36:29;13.10;99.90
48535;DHT22;34323;52.022;5.686;2023-04-24T04:38:54;13.00;99.90
48535;DHT22;34323;52.022;5.686;2023-04-24T04:41:22;13.20;99.90
48535;DHT22;34323;52.022;5.686;2023-04-24T04:43:47;13.60;99.90
48535;DHT22;34323;52.022;5.686;2023-04-24T04:46:13;14.10;99.90
48535;DHT22;34323;52.022;5.686;2023-04-24T04:48:39;14.40;99.90
48535;DHT22;34323;52.022;5.686;2023-04-24T04:51:05;14.70;99.90
48535;DHT22;34323;52.022;5.686;2023-04-24T04:53:30;15.00;99.90
48535;DHT22;34323;52.022;5.686;2023-04-24T04:55:56;15.20;99.90
48535;DHT22;34323;52.022;5.686;2023-04-24T04:58:22;15.30;99.90
48535;DHT22;34323;52.022;5.686;2023-04-24T05:00:47;15.60;99.90
48535;DHT22;34323;52.022;5.686;2023-04-24T05:03:13;15.70;99.90
48535;DHT22;34323;52.022;5.686;2023-04-24T05:05:39;15.70;99.90
48535;DHT22;34323;52.022;5.686;2023-04-24T05:08:07;15.90;99.90
48535;DHT22;34323;52.022;5.686;2023-04-24T05:10:32;15.90;99.90
48535;DHT22;34323;52.022;5.686;2023-04-24T05:12:58;15.80;99.90
48535;DHT22;34323;52.022;5.686;2023-04-24T05:15:23;15.90;99.90
48535;DHT22;34323;52.022;5.686;2023-04-24T05:17:49;15.80;99.90
48535;DHT22;34323;52.022;5.686;2023-04-24T05:20:15;15.50;99.90
48535;DHT22;34323;52.022;5.686;2023-04-24T05:22:40;15.40;99.90
48535;DHT22;34323;52.022;5.686;2023-04-24T05:25:06;15.40;99.90
48535;DHT22;34323;52.022;5.686;2023-04-24T05:27:32;15.50;99.90
48535;DHT22;34323;52.022;5.686;2023-04-24T05:29:57;15.70;99.90
48535;DHT22;34323;52.022;5.686;2023-04-24T05:32:23;15.50;99.90
48535;DHT22;34323;52.022;5.686;2023-04-24T05:34:48;15.00;99.90
48535;DHT22;34323;52.022;5.686;2023-04-24T05:37:14;14.90;99.90
48535;DHT22;34323;52.022;5.686;2023-04-24T05:39:39;15.20;99.90
48535;DHT22;34323;52.022;5.686;2023-04-24T05:42:06;15.40;99.90
48535;DHT22;34323;52.022;5.686;2023-04-24T05:44:32;15.40;99.90
48535;DHT22;34323;52.022;5.686;2023-04-24T05:46:58;15.50;99.90
48535;DHT22;34323;52.022;5.686;2023-04-24T05:49:23;15.60;99.90
48535;DHT22;34323;52.022;5.686;2023-04-24T05:51:49;15.70;99.90
48535;DHT22;34323;52.022;5.686;2023-04-24T05:54:14;15.60;99.90
48535;DHT22;34323;52.022;5.686;2023-04-24T05:56:40;15.90;99.90
48535;DHT22;34323;52.022;5.686;2023-04-24T05:59:06;15.70;99.90
48535;DHT22;34323;52.022;5.686;2023-04-24T06:01:32;15.80;99.90
48535;DHT22;34323;52.022;5.686;2023-04-24T06:03:58;15.90;99.90
48535;DHT22;34323;52.022;5.686;2023-04-24T06:06:24;16.10;99.90
48535;DHT22;34323;52.022;5.686;2023-04-24T06:08:49;16.30;99.90
48535;DHT22;34323;52.022;5.686;2023-04-24T06:11:15;16.50;99.90
48535;DHT22;34323;52.022;5.686;2023-04-24T06:13:41;16.50;99.90
48535;DHT22;34323;52.022;5.686;2023-04-24T06:16:06;16.50;99.90
48535;DHT22;34323;52.022;5.686;2023-04-24T06:18:32;16.60;99.90
48535;DHT22;34323;52.022;5.686;2023-04-24T06:20:57;16.70;99.90
48535;DHT22;34323;52.022;5.686;2023-04-24T06:23:23;16.40;99.90
48535;DHT22;34323;52.022;5.686;2023-04-24T06:25:49;16.20;99.90
48535;DHT22;34323;52.022;5.686;2023-04-24T06:28:15;16.40;99.90
48535;DHT22;34323;52.022;5.686;2023-04-24T06:30:40;16.40;99.90
48535;DHT22;34323;52.022;5.686;2023-04-24T06:33:06;16.30;99.90
48535;DHT22;34323;52.022;5.686;2023-04-24T06:35:32;16.40;99.90
48535;DHT22;34323;52.022;5.686;2023-04-24T06:37:57;16.20;99.90
48535;DHT22;34323;52.022;5.686;2023-04-24T06:40:23;16.10;99.90
48535;DHT22;34323;52.022;5.686;2023-04-24T06:42:48;16.10;99.90
48535;DHT22;34323;52.022;5.686;2023-04-24T06:45:14;16.00;99.90
48535;DHT22;34323;52.022;5.686;2023-04-24T06:47:39;15.90;99.90
48535;DHT22;34323;52.022;5.686;2023-04-24T06:50:05;15.90;99.90
48535;DHT22;34323;52.022;5.686;2023-04-24T06:52:31;15.90;99.90
48535;DHT22;34323;52.022;5.686;2023-04-24T06:55:02;15.70;99.90
48535;DHT22;34323;52.022;5.686;2023-04-24T06:57:28;15.80;99.90
48535;DHT22;34323;52.022;5.686;2023-04-24T06:59:53;15.60;99.90
48535;DHT22;34323;52.022;5.686;2023-04-24T07:02:19;15.50;99.90
48535;DHT22;34323;52.022;5.686;2023-04-24T07:04:45;15.50;99.90
48535;DHT22;34323;52.022;5.686;2023-04-24T07:07:13;15.30;99.90
48535;DHT22;34323;52.022;5.686;2023-04-24T07:09:40;15.50;99.90
48535;DHT22;34323;52.022;5.686;2023-04-24T07:12:08;15.50;99.90
48535;DHT22;34323;52.022;5.686;2023-04-24T07:14:33;15.10;99.90
48535;DHT22;34323;52.022;5.686;2023-04-24T07:16:59;14.70;99.90
48535;DHT22;34323;52.022;5.686;2023-04-24T07:19:24;14.30;99.90
48535;DHT22;34323;52.022;5.686;2023-04-24T07:21:50;14.10;99.90
48535;DHT22;34323;52.022;5.686;2023-04-24T07:24:16;14.00;99.90
48535;DHT22;34323;52.022;5.686;2023-04-24T07:26:41;14.00;99.90
48535;DHT22;34323;52.022;5.686;2023-04-24T07:29:07;13.60;99.90
48535;DHT22;34323;52.022;5.686;2023-04-24T07:31:33;13.50;99.90
48535;DHT22;34323;52.022;5.686;2023-04-24T07:33:59;13.50;99.90
48535;DHT22;34323;52.022;5.686;2023-04-24T07:36:24;13.70;99.90
48535;DHT22;34323;52.022;5.686;2023-04-24T07:38:51;13.90;99.90
48535;DHT22;34323;52.022;5.686;2023-04-24T07:41:17;14.00;99.90
48535;DHT22;34323;52.022;5.686;2023-04-24T07:43:42;14.10;99.90
48535;DHT22;34323;52.022;5.686;2023-04-24T07:46:08;13.80;99.90
48535;DHT22;34323;52.022;5.686;2023-04-24T07:48:34;13.60;99.90
48535;DHT22;34323;52.022;5.686;2023-04-24T07:51:00;13.40;99.90
48535;DHT22;34323;52.022;5.686;2023-04-24T07:53:25;13.60;99.90
48535;DHT22;34323;52.022;5.686;2023-04-24T07:55:51;13.80;99.90
48535;DHT22;34323;52.022;5.686;2023-04-24T07:58:17;14.00;99.90
48535;DHT22;34323;52.022;5.686;2023-04-24T08:00:42;14.00;99.90
48535;DHT22;34323;52.022;5.686;2023-04-24T08:03:08;13.80;99.90
48535;DHT22;34323;52.022;5.686;2023-04-24T08:05:33;13.60;99.90
48535;DHT22;34323;52.022;5.686;2023-04-24T08:07:59;14.00;99.90
48535;DHT22;34323;52.022;5.686;2023-04-24T08:10:25;13.80;99.90
48535;DHT22;34323;52.022;5.686;2023-04-24T08:12:51;13.50;99.90
48535;DHT22;34323;52.022;5.686;2023-04-24T08:15:16;13.40;99.90
48535;DHT22;34323;52.022;5.686;2023-04-24T08:17:42;13.50;99.90
48535;DHT22;34323;52.022;5.686;2023-04-24T08:20:09;13.60;99.90
48535;DHT22;34323;52.022;5.686;2023-04-24T08:22:42;13.80;99.90
48535;DHT22;34323;52.022;5.686;2023-04-24T08:25:09;13.70;99.90
48535;DHT22;34323;52.022;5.686;2023-04-24T08:27:35;13.50;99.90
48535;DHT22;34323;52.022;5.686;2023-04-24T08:30:02;13.50;99.90
48535;DHT22;34323;52.022;5.686;2023-04-24T08:32:28;13.80;99.90
48535;DHT22;34323;52.022;5.686;2023-04-24T08:34:57;13.80;99.90
48535;DHT22;34323;52.022;5.686;2023-04-24T08:37:23;14.00;99.90
48535;DHT22;34323;52.022;5.686;2023-04-24T08:39:52;14.20;99.90
48535;DHT22;34323;52.022;5.686;2023-04-24T08:42:19;14.20;99.90
48535;DHT22;34323;52.022;5.686;2023-04-24T08:44:45;14.10;99.90
48535;DHT22;34323;52.022;5.686;2023-04-24T08:47:12;14.00;99.90
48535;DHT22;34323;52.022;5.686;2023-04-24T08:49:38;13.70;99.90
48535;DHT22;34323;52.022;5.686;2023-04-24T08:52:07;13.30;99.90
48535;DHT22;34323;52.022;5.686;2023-04-24T08:54:36;13.20;99.90
48535;DHT22;34323;52.022;5.686;2023-04-24T08:57:02;12.80;99.90
48535;DHT22;34323;52.022;5.686;2023-04-24T08:59:31;12.60;99.90
48535;DHT22;34323;52.022;5.686;2023-04-24T09:01:57;12.70;99.90
48535;DHT22;34323;52.022;5.686;2023-04-24T09:04:24;13.10;99.90
48535;DHT22;34323;52.022;5.686;2023-04-24T09:06:51;13.20;99.90
48535;DHT22;34323;52.022;5.686;2023-04-24T09:09:17;13.00;99.90
48535;DHT22;34323;52.022;5.686;2023-04-24T09:11:44;12.70;99.90
48535;DHT22;34323;52.022;5.686;2023-04-24T09:14:10;12.70;99.90
48535;DHT22;34323;52.022;5.686;2023-04-24T09:16:36;12.90;99.90
48535;DHT22;34323;52.022;5.686;2023-04-24T09:19:01;12.80;99.90
48535;DHT22;34323;52.022;5.686;2023-04-24T09:21:32;13.00;99.90
48535;DHT22;34323;52.022;5.686;2023-04-24T09:24:07;13.40;99.90
48535;DHT22;34323;52.022;5.686;2023-04-24T09:26:35;13.30;99.90
48535;DHT22;34323;52.022;5.686;2023-04-24T09:29:01;13.10;99.90
48535;DHT22;34323;52.022;5.686;2023-04-24T09:31:29;13.30;99.90
48535;DHT22;34323;52.022;5.686;2023-04-24T09:34:00;13.40;99.90
48535;DHT22;34323;52.022;5.686;2023-04-24T09:36:31;13.30;99.90
48535;DHT22;34323;52.022;5.686;2023-04-24T09:38:59;13.20;99.90
48535;DHT22;34323;52.022;5.686;2023-04-24T09:41:26;13.60;99.90
48535;DHT22;34323;52.022;5.686;2023-04-24T09:43:57;13.30;99.90
48535;DHT22;34323;52.022;5.686;2023-04-24T09:46:30;13.50;99.90
48535;DHT22;34323;52.022;5.686;2023-04-24T09:48:56;13.50;99.90
48535;DHT22;34323;52.022;5.686;2023-04-24T09:51:49;13.10;99.90
48535;DHT22;34323;52.022;5.686;2023-04-24T09:54:21;13.40;99.90
48535;DHT22;34323;52.022;5.686;2023-04-24T09:56:49;13.70;99.90
48535;DHT22;34323;52.022;5.686;2023-04-24T09:59:18;13.90;99.90
48535;DHT22;34323;52.022;5.686;2023-04-24T10:01:44;13.70;99.90
48535;DHT22;34323;52.022;5.686;2023-04-24T10:04:21;13.80;99.90
48535;DHT22;34323;52.022;5.686;2023-04-24T10:06:49;13.80;99.90
48535;DHT22;34323;52.022;5.686;2023-04-24T10:09:16;13.90;99.90
48535;DHT22;34323;52.022;5.686;2023-04-24T10:11:48;14.10;99.90
48535;DHT22;34323;52.022;5.686;2023-04-24T10:14:16;14.40;99.90
48535;DHT22;34323;52.022;5.686;2023-04-24T10:16:43;14.40;99.90
48535;DHT22;34323;52.022;5.686;2023-04-24T10:19:09;14.60;99.90
48535;DHT22;34323;52.022;5.686;2023-04-24T10:21:36;14.60;99.90
48535;DHT22;34323;52.022;5.686;2023-04-24T10:24:10;14.60;99.90
48535;DHT22;34323;52.022;5.686;2023-04-24T10:26:36;14.40;99.90
48535;DHT22;34323;52.022;5.686;2023-04-24T10:29:05;14.50;99.90
48535;DHT22;34323;52.022;5.686;2023-04-24T10:31:31;14.20;99.90
48535;DHT22;34323;52.022;5.686;2023-04-24T10:33:58;14.20;99.90
48535;DHT22;34323;52.022;5.686;2023-04-24T10:36:25;14.30;99.90
48535;DHT22;34323;52.022;5.686;2023-04-24T10:38:55;14.30;99.90
48535;DHT22;34323;52.022;5.686;2023-04-24T10:41:26;14.60;99.90
48535;DHT22;34323;52.022;5.686;2023-04-24T10:44:07;14.50;99.90
48535;DHT22;34323;52.022;5.686;2023-04-24T10:46:33;14.40;99.90
48535;DHT22;34323;52.022;5.686;2023-04-24T10:48:58;14.70;99.90
48535;DHT22;34323;52.022;5.686;2023-04-24T10:51:44;14.70;99.90
48535;DHT22;34323;52.022;5.686;2023-04-24T10:57:28;14.00;99.90
48535;DHT22;34323;52.022;5.686;2023-04-24T11:00:19;14.20;99.90
48535;DHT22;34323;52.022;5.686;2023-04-24T11:02:46;14.20;99.90
48535;DHT22;34323;52.022;5.686;2023-04-24T11:05:19;14.10;99.90
48535;DHT22;34323;52.022;5.686;2023-04-24T11:08:13;14.20;99.90
48535;DHT22;34323;52.022;5.686;2023-04-24T11:13:29;14.90;99.90
48535;DHT22;34323;52.022;5.686;2023-04-24T11:16:29;15.20;99.90
48535;DHT22;34323;52.022;5.686;2023-04-24T11:19:03;15.20;99.90
48535;DHT22;34323;52.022;5.686;2023-04-24T11:27:19;15.00;99.90
48535;DHT22;34323;52.022;5.686;2023-04-24T11:34:59;15.10;99.90
48535;DHT22;34323;52.022;5.686;2023-04-24T11:37:40;15.10;99.90
48535;DHT22;34323;52.022;5.686;2023-04-24T11:40:08;15.20;99.90
48535;DHT22;34323;52.022;5.686;2023-04-24T11:42:37;15.30;99.90
48535;DHT22;34323;52.022;5.686;2023-04-24T11:45:23;15.00;99.90
48535;DHT22;34323;52.022;5.686;2023-04-24T11:47:50;14.70;99.90
48535;DHT22;34323;52.022;5.686;2023-04-24T11:50:18;14.30;99.90
48535;DHT22;34323;52.022;5.686;2023-04-24T11:52:46;14.00;99.90
48535;DHT22;34323;52.022;5.686;2023-04-24T11:57:51;13.70;99.90
48535;DHT22;34323;52.022;5.686;2023-04-24T12:00:26;13.70;99.90
48535;DHT22;34323;52.022;5.686;2023-04-24T12:03:07;13.90;99.90
48535;DHT22;34323;52.022;5.686;2023-04-24T12:05:33;14.10;99.90
48535;DHT22;34323;52.022;5.686;2023-04-24T12:07:59;14.00;99.90
48535;DHT22;34323;52.022;5.686;2023-04-24T12:10:27;13.90;99.90
48535;DHT22;34323;52.022;5.686;2023-04-24T12:12:54;14.10;99.90
48535;DHT22;34323;52.022;5.686;2023-04-24T12:15:21;13.90;99.90
48535;DHT22;34323;52.022;5.686;2023-04-24T12:17:47;14.40;99.90
48535;DHT22;34323;52.022;5.686;2023-04-24T12:20:13;14.60;99.90
48535;DHT22;34323;52.022;5.686;2023-04-24T12:22:51;14.90;99.90
48535;DHT22;34323;52.022;5.686;2023-04-24T12:25:20;15.00;99.90
48535;DHT22;34323;52.022;5.686;2023-04-24T12:27:51;15.20;99.90
48535;DHT22;34323;52.022;5.686;2023-04-24T12:30:18;15.10;99.90
48535;DHT22;34323;52.022;5.686;2023-04-24T12:32:45;15.00;99.90
48535;DHT22;34323;52.022;5.686;2023-04-24T12:35:11;15.10;99.90
48535;DHT22;34323;52.022;5.686;2023-04-24T12:37:37;14.90;99.90
48535;DHT22;34323;52.022;5.686;2023-04-24T12:40:07;14.80;99.90
48535;DHT22;34323;52.022;5.686;2023-04-24T12:42:34;14.90;99.90
48535;DHT22;34323;52.022;5.686;2023-04-24T12:45:04;15.20;99.90
48535;DHT22;34323;52.022;5.686;2023-04-24T12:47:33;15.40;99.90
48535;DHT22;34323;52.022;5.686;2023-04-24T12:50:00;15.10;99.90
48535;DHT22;34323;52.022;5.686;2023-04-24T12:52:27;15.20;99.90
48535;DHT22;34323;52.022;5.686;2023-04-24T12:54:55;15.20;99.90
48535;DHT22;34323;52.022;5.686;2023-04-24T12:57:22;15.30;99.90
48535;DHT22;34323;52.022;5.686;2023-04-24T12:59:47;15.00;99.90
48535;DHT22;34323;52.022;5.686;2023-04-24T13:02:13;15.10;99.90
48535;DHT22;34323;52.022;5.686;2023-04-24T13:04:39;15.10;99.90
48535;DHT22;34323;52.022;5.686;2023-04-24T13:07:05;15.00;99.90
48535;DHT22;34323;52.022;5.686;2023-04-24T13:09:31;15.40;99.90
48535;DHT22;34323;52.022;5.686;2023-04-24T13:11:57;15.60;99.90
48535;DHT22;34323;52.022;5.686;2023-04-24T13:14:23;15.40;99.90
48535;DHT22;34323;52.022;5.686;2023-04-24T13:16:49;15.50;99.90
48535;DHT22;34323;52.022;5.686;2023-04-24T13:19:14;15.50;99.90
48535;DHT22;34323;52.022;5.686;2023-04-24T13:21:40;15.40;99.90
48535;DHT22;34323;52.022;5.686;2023-04-24T13:24:06;15.30;99.90
48535;DHT22;34323;52.022;5.686;2023-04-24T13:26:33;15.40;99.90
48535;DHT22;34323;52.022;5.686;2023-04-24T13:28:59;15.40;99.90
48535;DHT22;34323;52.022;5.686;2023-04-24T13:31:24;15.20;99.90
48535;DHT22;34323;52.022;5.686;2023-04-24T13:33:50;14.90;99.90
48535;DHT22;34323;52.022;5.686;2023-04-24T13:36:15;14.90;99.90
48535;DHT22;34323;52.022;5.686;2023-04-24T13:38:43;14.90;99.90
48535;DHT22;34323;52.022;5.686;2023-04-24T13:41:09;15.00;99.90
48535;DHT22;34323;52.022;5.686;2023-04-24T13:43:35;14.70;99.90
48535;DHT22;34323;52.022;5.686;2023-04-24T13:46:01;14.50;99.90
48535;DHT22;34323;52.022;5.686;2023-04-24T13:48:29;14.60;99.90
48535;DHT22;34323;52.022;5.686;2023-04-24T13:50:55;15.10;99.90
48535;DHT22;34323;52.022;5.686;2023-04-24T13:53:20;16.30;99.90
48535;DHT22;34323;52.022;5.686;2023-04-24T13:55:46;17.40;99.90
48535;DHT22;34323;52.022;5.686;2023-04-24T13:58:12;18.50;99.90
48535;DHT22;34323;52.022;5.686;2023-04-24T14:00:37;19.00;99.90
48535;DHT22;34323;52.022;5.686;2023-04-24T14:03:03;18.90;99.90
48535;DHT22;34323;52.022;5.686;2023-04-24T14:05:29;18.40;99.90
48535;DHT22;34323;52.022;5.686;2023-04-24T14:07:54;18.10;99.90
48535;DHT22;34323;52.022;5.686;2023-04-24T14:10:20;18.00;99.90
48535;DHT22;34323;52.022;5.686;2023-04-24T14:12:46;18.20;99.90
48535;DHT22;34323;52.022;5.686;2023-04-24T14:15:11;18.50;99.90
48535;DHT22;34323;52.022;5.686;2023-04-24T14:17:38;18.40;99.90
48535;DHT22;34323;52.022;5.686;2023-04-24T14:20:05;18.10;99.90
48535;DHT22;34323;52.022;5.686;2023-04-24T14:22:30;17.80;99.90
48535;DHT22;34323;52.022;5.686;2023-04-24T14:24:56;17.40;99.90
48535;DHT22;34323;52.022;5.686;2023-04-24T14:27:21;17.00;99.90
48535;DHT22;34323;52.022;5.686;2023-04-24T14:29:47;16.40;99.90
48535;DHT22;34323;52.022;5.686;2023-04-24T14:32:12;16.00;99.90
48535;DHT22;34323;52.022;5.686;2023-04-24T14:34:40;15.70;99.90
48535;DHT22;34323;52.022;5.686;2023-04-24T14:37:05;15.60;99.90
48535;DHT22;34323;52.022;5.686;2023-04-24T14:39:31;15.60;99.90
48535;DHT22;34323;52.022;5.686;2023-04-24T14:41:57;15.60;99.90
48535;DHT22;34323;52.022;5.686;2023-04-24T14:44:22;15.10;99.90
48535;DHT22;34323;52.022;5.686;2023-04-24T14:46:48;15.20;99.90
48535;DHT22;34323;52.022;5.686;2023-04-24T14:49:14;15.20;99.90
48535;DHT22;34323;52.022;5.686;2023-04-24T14:51:40;15.50;99.90
48535;DHT22;34323;52.022;5.686;2023-04-24T14:54:06;15.40;99.90
48535;DHT22;34323;52.022;5.686;2023-04-24T14:56:32;15.40;99.90
48535;DHT22;34323;52.022;5.686;2023-04-24T14:58:58;15.10;99.90
48535;DHT22;34323;52.022;5.686;2023-04-24T15:01:23;15.30;99.90
48535;DHT22;34323;52.022;5.686;2023-04-24T15:03:49;15.70;99.90
48535;DHT22;34323;52.022;5.686;2023-04-24T15:06:15;16.60;99.90
48535;DHT22;34323;52.022;5.686;2023-04-24T15:08:41;17.20;99.90
48535;DHT22;34323;52.022;5.686;2023-04-24T15:11:07;17.80;99.90
48535;DHT22;34323;52.022;5.686;2023-04-24T15:13:34;18.00;99.90
48535;DHT22;34323;52.022;5.686;2023-04-24T15:15:59;17.70;99.90
48535;DHT22;34323;52.022;5.686;2023-04-24T15:18:25;17.70;99.90
48535;DHT22;34323;52.022;5.686;2023-04-24T15:20:52;17.70;99.90
48535;DHT22;34323;52.022;5.686;2023-04-24T15:23:18;17.30;99.90
48535;DHT22;34323;52.022;5.686;2023-04-24T15:25:43;16.80;99.90
48535;DHT22;34323;52.022;5.686;2023-04-24T15:28:09;16.30;99.90
48535;DHT22;34323;52.022;5.686;2023-04-24T15:30:35;16.50;99.90
48535;DHT22;34323;52.022;5.686;2023-04-24T15:33:01;16.80;99.90
48535;DHT22;34323;52.022;5.686;2023-04-24T15:35:27;16.50;99.90
48535;DHT22;34323;52.022;5.686;2023-04-24T15:37:52;16.10;99.90
48535;DHT22;34323;52.022;5.686;2023-04-24T15:40:18;15.90;99.90
48535;DHT22;34323;52.022;5.686;2023-04-24T15:42:44;16.30;99.90
48535;DHT22;34323;52.022;5.686;2023-04-24T15:45:10;16.30;99.90
48535;DHT22;34323;52.022;5.686;2023-04-24T15:47:37;16.20;99.90